createdAt,value
2023-04-12T00:02:01.098Z,0.00
2023-04-12T00:07:23.659Z,0.00
2023-04-12T00:12:16.060Z,0.00
2023-04-12T00:17:15.997Z,0.00
2023-04-12T00:22:15.935Z,0.00
2023-04-12T00:27:15.846Z,0.00
2023-04-12T00:32:16.193Z,0.00
2023-04-12T00:37:15.686Z,0.00
2023-04-12T00:42:15.640Z,0.00
2023-04-12T00:47:15.576Z,0.00
2023-04-12T00:52:15.518Z,0.00
2023-04-12T00:57:15.443Z,0.00
2023-04-12T01:02:15.455Z,0.00
2023-04-12T01:07:15.312Z,0.00
2023-04-12T01:12:15.253Z,0.00
2023-04-12T01:17:15.176Z,0.00
2023-04-12T01:22:15.124Z,0.00
2023-04-12T01:27:15.013Z,0.00
2023-04-12T01:32:15.004Z,0.00
2023-04-12T01:37:14.908Z,0.00
2023-04-12T01:42:14.846Z,0.00
2023-04-12T01:47:14.789Z,0.00
2023-04-12T01:52:14.730Z,0.00
2023-04-12T01:57:14.638Z,0.00
2023-04-12T02:02:14.659Z,0.00
2023-04-12T02:07:14.561Z,0.00
2023-04-12T02:12:14.475Z,0.00
2023-04-12T02:17:14.378Z,0.00
2023-04-12T02:22:14.362Z,0.00
2023-04-12T02:27:14.238Z,0.00
2023-04-12T02:32:14.209Z,0.00
2023-04-12T02:37:14.106Z,0.00
2023-04-12T02:42:14.054Z,0.00
2023-04-12T02:47:14.000Z,0.00
2023-04-12T02:52:13.919Z,0.00
2023-04-12T02:57:13.853Z,0.00
2023-04-12T03:02:13.855Z,0.00
2023-04-12T03:07:14.520Z,0.00
2023-04-12T03:12:13.669Z,0.00
2023-04-12T03:17:13.593Z,0.00
2023-04-12T03:22:13.516Z,0.00
2023-04-12T03:27:13.454Z,0.00
2023-04-12T03:32:13.396Z,0.00
2023-04-12T03:37:13.343Z,0.00
2023-04-12T03:42:25.508Z,0.00
2023-04-12T03:47:14.198Z,0.00
2023-04-12T03:52:13.121Z,0.00
2023-04-12T03:57:13.061Z,0.00
2023-04-12T04:02:13.037Z,0.00
2023-04-12T04:07:12.912Z,0.00
2023-04-12T04:12:12.869Z,0.00
2023-04-12T04:17:23.769Z,0.00
2023-04-12T04:22:16.164Z,0.00
2023-04-12T04:27:16.091Z,4.00
2023-04-12T04:32:16.053Z,4.00
2023-04-12T04:37:16.046Z,8.00
2023-04-12T04:42:15.908Z,8.00
2023-04-12T04:47:15.842Z,12.00
2023-04-12T04:52:15.816Z,16.00
2023-04-12T04:57:15.711Z,20.00
2023-04-12T05:02:15.687Z,32.00
2023-04-12T05:07:15.645Z,40.00
2023-04-12T05:12:15.490Z,52.00
2023-04-12T05:17:15.602Z,52.00
2023-04-12T05:22:15.360Z,68.00
2023-04-12T05:27:15.343Z,96.00
2023-04-12T05:32:15.224Z,120.00
2023-04-12T05:37:15.208Z,132.00
2023-04-12T05:42:15.112Z,164.00
2023-04-12T05:47:15.046Z,160.00
2023-04-12T05:52:14.966Z,156.00
2023-04-12T05:57:14.926Z,184.00
2023-04-12T06:02:14.945Z,208.00
2023-04-12T06:07:14.804Z,204.00
2023-04-12T06:12:14.726Z,272.00
2023-04-12T06:17:14.681Z,300.00
2023-04-12T06:22:14.599Z,304.00
2023-04-12T06:27:14.545Z,288.00
2023-04-12T06:32:14.480Z,432.00
2023-04-12T06:37:14.391Z,504.00
2023-04-12T06:42:14.781Z,516.00
2023-04-12T06:47:14.275Z,432.00
2023-04-12T06:52:14.241Z,532.00
2023-04-12T06:57:14.117Z,812.00
2023-04-12T07:02:14.111Z,868.00
2023-04-12T07:07:13.990Z,888.00
2023-04-12T07:12:13.954Z,808.00
2023-04-12T07:17:13.866Z,940.00
2023-04-12T07:22:14.226Z,996.00
2023-04-12T07:27:13.715Z,836.00
2023-04-12T07:32:13.689Z,748.00
2023-04-12T07:37:13.577Z,864.00
2023-04-12T07:42:13.555Z,956.00
2023-04-12T07:47:13.510Z,1004.00
2023-04-12T07:52:13.409Z,1120.00
2023-04-12T07:57:13.350Z,1352.00
2023-04-12T08:02:13.364Z,1384.00
2023-04-12T08:07:13.170Z,1480.00
2023-04-12T08:12:13.152Z,1584.00
2023-04-12T08:17:13.076Z,1820.00
2023-04-12T08:22:13.789Z,1924.00
2023-04-12T08:27:12.947Z,1608.00
2023-04-12T08:32:12.897Z,1520.00
2023-04-12T08:37:12.804Z,1760.00
2023-04-12T08:42:12.757Z,1460.00
2023-04-12T08:47:12.713Z,1828.00
2023-04-12T08:52:12.632Z,1756.00
2023-04-12T08:57:12.547Z,2656.00
2023-04-12T09:02:12.597Z,2728.00
2023-04-12T09:07:12.421Z,2080.00
2023-04-12T09:12:12.363Z,1764.00
2023-04-12T09:17:12.321Z,1916.00
2023-04-12T09:22:12.265Z,1404.00
2023-04-12T09:27:12.186Z,2140.00
2023-04-12T09:32:12.097Z,1356.00
2023-04-12T09:37:12.017Z,1488.00
2023-04-12T09:42:29.254Z,1640.00
2023-04-12T09:47:12.865Z,1460.00
2023-04-12T09:52:11.842Z,1128.00
2023-04-12T09:57:11.763Z,1200.00
2023-04-12T10:02:11.757Z,1504.00
2023-04-12T10:07:13.188Z,1640.00
2023-04-12T10:12:11.577Z,1124.00
2023-04-12T10:17:11.520Z,1148.00
2023-04-12T10:22:11.416Z,1168.00
2023-04-12T10:27:11.362Z,1200.00
2023-04-12T10:32:11.351Z,1072.00
2023-04-12T10:37:11.213Z,1540.00
2023-04-12T10:42:11.161Z,1636.00
2023-04-12T10:47:11.109Z,1676.00
2023-04-12T10:52:11.075Z,1676.00
2023-04-12T10:57:10.960Z,1844.00
2023-04-12T11:02:11.025Z,2200.00
2023-04-12T11:07:10.853Z,2352.00
2023-04-12T11:12:11.241Z,3644.00
2023-04-12T11:17:10.732Z,4416.00
2023-04-12T11:22:10.667Z,3912.00
2023-04-12T11:27:10.557Z,3080.00
2023-04-12T11:32:10.558Z,5980.00
2023-04-12T11:37:10.452Z,6796.00
2023-04-12T11:42:10.377Z,8548.00
2023-04-12T11:47:10.334Z,11456.00
2023-04-12T11:52:10.220Z,11980.00
2023-04-12T11:57:10.173Z,5796.00
2023-04-12T12:02:21.895Z,5044.00
2023-04-12T12:07:11.337Z,3496.00
2023-04-12T12:12:09.941Z,3508.00
2023-04-12T12:17:09.915Z,7112.00
2023-04-12T12:22:09.846Z,6220.00
2023-04-12T12:27:09.829Z,4496.00
2023-04-12T12:32:09.712Z,3420.00
2023-04-12T12:37:09.632Z,4840.00
2023-04-12T12:42:09.654Z,2628.00
2023-04-12T12:47:14.178Z,1396.00
2023-04-12T12:52:10.432Z,1472.00
2023-04-12T12:57:09.389Z,3324.00
2023-04-12T13:02:09.447Z,2836.00
2023-04-12T13:07:09.248Z,1708.00
2023-04-12T13:12:09.193Z,2608.00
2023-04-12T13:17:09.089Z,1644.00
2023-04-12T13:22:09.066Z,1980.00
2023-04-12T13:27:08.953Z,2084.00
2023-04-12T13:32:08.931Z,6992.00
2023-04-12T13:37:08.850Z,9144.00
2023-04-12T13:42:09.514Z,5576.00
2023-04-12T13:47:08.694Z,6384.00
2023-04-12T13:52:08.648Z,3924.00
2023-04-12T13:57:08.557Z,2124.00
2023-04-12T14:02:08.628Z,1920.00
2023-04-12T14:07:08.485Z,1548.00
2023-04-12T14:12:08.356Z,760.00
2023-04-12T14:17:08.388Z,900.00
2023-04-12T14:22:08.245Z,1500.00
2023-04-12T14:27:08.152Z,1668.00
2023-04-12T14:32:08.119Z,728.00
2023-04-12T14:37:08.026Z,3216.00
2023-04-12T14:42:07.996Z,6756.00
2023-04-12T14:47:07.881Z,5696.00
2023-04-12T14:52:07.828Z,4084.00
2023-04-12T14:57:07.789Z,3200.00
2023-04-12T15:02:07.904Z,3536.00
2023-04-12T15:07:07.626Z,2784.00
2023-04-12T15:12:07.649Z,2516.00
2023-04-12T15:17:07.595Z,1824.00
2023-04-12T15:22:07.424Z,2664.00
2023-04-12T15:27:07.384Z,1532.00
2023-04-12T15:32:07.350Z,1520.00
2023-04-12T15:37:07.254Z,1940.00
2023-04-12T15:42:07.180Z,2116.00
2023-04-12T15:47:11.391Z,3324.00
2023-04-12T15:52:07.063Z,2180.00
2023-04-12T15:57:06.963Z,2764.00
2023-04-12T16:02:06.957Z,2320.00
2023-04-12T16:07:06.897Z,3592.00
2023-04-12T16:12:06.774Z,2472.00
2023-04-12T16:17:06.697Z,3460.00
2023-04-12T16:22:06.638Z,3320.00
2023-04-12T16:27:06.564Z,3200.00
2023-04-12T16:32:06.657Z,1584.00
2023-04-12T16:37:06.880Z,1248.00
2023-04-12T16:42:06.368Z,1008.00
2023-04-12T16:47:06.352Z,404.00
2023-04-12T16:52:06.241Z,328.00
2023-04-12T16:57:06.193Z,344.00
2023-04-12T17:02:06.147Z,440.00
2023-04-12T17:07:06.059Z,760.00
2023-04-12T17:12:05.958Z,528.00
2023-04-12T17:17:06.615Z,516.00
2023-04-12T17:22:06.688Z,468.00
2023-04-12T17:27:05.795Z,472.00
2023-04-12T17:32:05.741Z,288.00
2023-04-12T17:37:05.675Z,212.00
2023-04-12T17:42:05.685Z,120.00
2023-04-12T17:47:05.551Z,68.00
2023-04-12T17:52:05.463Z,72.00
2023-04-12T17:57:05.421Z,80.00
2023-04-12T18:02:05.411Z,80.00
2023-04-12T18:07:05.269Z,64.00
2023-04-12T18:12:05.201Z,44.00
2023-04-12T18:17:05.180Z,24.00
2023-04-12T18:22:05.050Z,16.00
2023-04-12T18:27:05.080Z,8.00
2023-04-12T18:32:04.945Z,4.00
2023-04-12T18:37:04.879Z,4.00
2023-04-12T18:42:04.784Z,0.00
2023-04-12T18:47:04.780Z,0.00
2023-04-12T18:52:04.668Z,0.00
2023-04-12T18:57:04.619Z,0.00
2023-04-12T19:02:04.581Z,0.00
2023-04-12T19:07:04.453Z,0.00
2023-04-12T19:12:04.384Z,0.00
2023-04-12T19:17:04.363Z,0.00
2023-04-12T19:22:04.224Z,0.00
2023-04-12T19:27:04.240Z,0.00
2023-04-12T19:32:04.184Z,0.00
2023-04-12T19:37:04.125Z,0.00
2023-04-12T19:42:04.045Z,0.00
2023-04-12T19:47:03.903Z,0.00
2023-04-12T19:52:03.879Z,0.00
2023-04-12T19:57:03.818Z,0.00
2023-04-12T20:02:03.759Z,0.00
2023-04-12T20:07:03.736Z,0.00
2023-04-12T20:12:03.623Z,0.00
2023-04-12T20:17:03.646Z,0.00
2023-04-12T20:22:03.516Z,0.00
2023-04-12T20:27:03.464Z,0.00
2023-04-12T20:32:03.325Z,0.00
2023-04-12T20:37:03.290Z,0.00
2023-04-12T20:42:03.296Z,0.00
2023-04-12T20:47:03.229Z,0.00
2023-04-12T20:52:03.081Z,0.00
2023-04-12T20:57:03.043Z,0.00
2023-04-12T21:02:02.997Z,0.00
2023-04-12T21:07:03.269Z,0.00
2023-04-12T21:12:02.812Z,0.00
2023-04-12T21:17:02.821Z,0.00
2023-04-12T21:22:02.698Z,0.00
2023-04-12T21:27:02.619Z,0.00
2023-04-12T21:32:02.588Z,0.00
2023-04-12T21:37:02.587Z,0.00
2023-04-12T21:42:02.417Z,0.00
2023-04-12T21:47:02.366Z,0.00
2023-04-12T21:52:02.282Z,0.00
2023-04-12T21:57:02.248Z,0.00
2023-04-12T22:02:02.275Z,0.00
2023-04-12T22:07:02.151Z,0.00
2023-04-12T22:12:02.028Z,0.00
2023-04-12T22:17:02.002Z,0.00
2023-04-12T22:22:01.886Z,0.00
2023-04-12T22:27:01.864Z,0.00
2023-04-12T22:32:01.755Z,0.00
2023-04-12T22:37:01.691Z,0.00
2023-04-12T22:42:01.629Z,0.00
2023-04-12T22:47:01.640Z,0.00
2023-04-12T22:52:01.546Z,0.00
2023-04-12T22:57:01.450Z,0.00
2023-04-12T23:02:01.467Z,0.00
2023-04-12T23:07:01.308Z,0.00
2023-04-12T23:12:01.244Z,0.00
2023-04-12T23:17:01.203Z,0.00
2023-04-12T23:22:01.101Z,0.00
2023-04-12T23:27:01.078Z,0.00
2023-04-12T23:32:01.026Z,0.00
2023-04-12T23:37:00.943Z,0.00
2023-04-12T23:42:00.817Z,0.00
2023-04-12T23:47:00.809Z,0.00
2023-04-12T23:52:00.696Z,0.00
2023-04-12T23:57:00.652Z,0.00
